createdAt,value
2023-05-21T00:00:27.472Z,18.10
2023-05-21T00:02:53.965Z,19.40
2023-05-21T00:05:21.432Z,18.58
2023-05-21T00:07:47.921Z,15.25
2023-05-21T00:10:14.419Z,17.50
2023-05-21T00:12:41.927Z,17.25
2023-05-21T00:15:09.321Z,16.75
2023-05-21T00:17:36.903Z,17.02
2023-05-21T00:20:08.753Z,17.50
2023-05-21T00:22:36.790Z,17.40
2023-05-21T00:25:04.208Z,17.00
2023-05-21T00:27:30.753Z,16.10
2023-05-21T00:29:57.581Z,14.27
2023-05-21T00:32:24.066Z,16.60
2023-05-21T00:34:50.796Z,16.25
2023-05-21T00:37:17.257Z,16.02
2023-05-21T00:39:43.680Z,17.63
2023-05-21T00:42:10.403Z,15.52
2023-05-21T00:44:36.844Z,17.25
2023-05-21T00:47:03.660Z,16.85
2023-05-21T00:49:31.489Z,15.05
2023-05-21T00:52:01.381Z,14.15
2023-05-21T00:54:28.159Z,14.98
2023-05-21T00:56:55.028Z,13.38
2023-05-21T00:59:21.619Z,15.18
2023-05-21T01:01:53.978Z,13.27
2023-05-21T01:04:20.606Z,14.18
2023-05-21T01:06:47.030Z,13.60
2023-05-21T01:09:13.559Z,13.52
2023-05-21T01:11:43.370Z,13.23
2023-05-21T01:14:12.653Z,12.57
2023-05-21T01:16:42.161Z,14.20
2023-05-21T01:19:14.064Z,12.55
2023-05-21T01:21:44.793Z,12.45
2023-05-21T01:24:11.233Z,13.32
2023-05-21T01:26:38.816Z,13.38
2023-05-21T01:29:06.576Z,12.65
2023-05-21T01:31:53.211Z,13.77
2023-05-21T01:34:23.987Z,13.90
2023-05-21T01:36:59.432Z,13.05
2023-05-21T01:39:37.103Z,12.80
2023-05-21T01:42:05.921Z,12.77
2023-05-21T01:44:33.938Z,11.27
2023-05-21T01:47:00.663Z,12.07
2023-05-21T01:49:27.262Z,12.13
2023-05-21T01:51:53.999Z,12.48
2023-05-21T01:54:21.980Z,15.18
2023-05-21T01:56:49.717Z,11.30
2023-05-21T01:59:17.269Z,11.88
2023-05-21T02:01:43.869Z,10.60
2023-05-21T02:04:10.422Z,12.50
2023-05-21T02:06:39.395Z,11.73
2023-05-21T02:09:05.946Z,11.25
2023-05-21T02:11:32.409Z,11.05
2023-05-21T02:13:58.839Z,11.18
2023-05-21T02:16:25.639Z,10.55
2023-05-21T02:18:52.254Z,11.68
2023-05-21T02:21:20.606Z,9.90
2023-05-21T02:23:47.062Z,12.63
2023-05-21T02:26:13.503Z,12.05
2023-05-21T02:28:40.531Z,11.25
2023-05-21T02:31:07.015Z,10.60
2023-05-21T02:33:33.508Z,10.32
2023-05-21T02:36:00.053Z,10.93
2023-05-21T02:38:26.613Z,10.50
2023-05-21T02:40:53.197Z,10.50
2023-05-21T02:43:19.790Z,11.90
2023-05-21T02:45:46.508Z,10.27
2023-05-21T02:48:12.990Z,9.50
2023-05-21T02:50:39.548Z,9.23
2023-05-21T02:53:06.326Z,9.35
2023-05-21T02:55:32.792Z,9.70
2023-05-21T02:57:59.304Z,8.95
2023-05-21T03:00:26.117Z,8.63
2023-05-21T03:02:52.733Z,9.02
2023-05-21T03:05:19.395Z,7.68
2023-05-21T03:07:45.858Z,7.88
2023-05-21T03:10:12.308Z,8.43
2023-05-21T03:12:39.272Z,9.55
2023-05-21T03:15:06.174Z,8.77
2023-05-21T03:17:32.702Z,10.02
2023-05-21T03:19:59.171Z,8.70
2023-05-21T03:22:25.682Z,10.63
2023-05-21T03:24:53.330Z,8.73
2023-05-21T03:27:19.837Z,8.73
2023-05-21T03:29:46.313Z,9.02
2023-05-21T03:32:13.498Z,9.38
2023-05-21T03:34:40.077Z,8.65
2023-05-21T03:37:06.559Z,10.75
2023-05-21T03:39:33.032Z,9.13
2023-05-21T03:41:59.507Z,8.45
2023-05-21T03:44:26.076Z,8.50
2023-05-21T03:46:52.510Z,9.15
2023-05-21T03:49:20.523Z,9.60
2023-05-21T03:51:46.970Z,10.45
2023-05-21T03:54:13.513Z,7.47
2023-05-21T03:56:40.032Z,8.45
2023-05-21T03:59:06.489Z,8.15
2023-05-21T04:01:33.314Z,8.85
2023-05-21T04:03:59.971Z,7.47
2023-05-21T04:06:26.549Z,8.30
2023-05-21T04:08:53.044Z,6.95
2023-05-21T04:11:19.579Z,7.40
2023-05-21T04:13:46.206Z,8.00
2023-05-21T04:16:14.763Z,8.00
2023-05-21T04:18:43.558Z,8.15
2023-05-21T04:21:12.151Z,7.63
2023-05-21T04:23:38.631Z,8.60
2023-05-21T04:26:05.128Z,8.05
2023-05-21T04:28:31.649Z,8.27
2023-05-21T04:30:58.656Z,8.73
2023-05-21T04:33:25.641Z,7.30
2023-05-21T04:35:52.302Z,7.43
2023-05-21T04:38:19.885Z,7.97
2023-05-21T04:40:52.254Z,8.23
2023-05-21T04:43:25.662Z,8.82
2023-05-21T04:45:55.354Z,8.68
2023-05-21T04:48:24.626Z,8.75
2023-05-21T04:50:52.011Z,8.05
2023-05-21T04:53:18.541Z,7.22
2023-05-21T04:55:45.077Z,8.65
2023-05-21T04:58:11.591Z,7.63
2023-05-21T05:00:39.257Z,7.28
2023-05-21T05:03:06.204Z,7.18
2023-05-21T05:05:32.695Z,7.55
2023-05-21T05:07:59.220Z,7.72
2023-05-21T05:10:25.693Z,8.70
2023-05-21T05:12:52.097Z,7.85
2023-05-21T05:15:18.678Z,8.95
2023-05-21T05:17:45.238Z,8.27
2023-05-21T05:20:11.846Z,7.82
2023-05-21T05:22:38.344Z,8.85
2023-05-21T05:25:06.302Z,8.50
2023-05-21T05:27:32.743Z,8.27
2023-05-21T05:29:59.219Z,8.20
2023-05-21T05:32:25.742Z,8.38
2023-05-21T05:34:52.226Z,7.70
2023-05-21T05:37:18.705Z,6.93
2023-05-21T05:39:45.163Z,7.72
2023-05-21T05:42:11.678Z,8.57
2023-05-21T05:44:38.205Z,8.18
2023-05-21T05:47:09.112Z,7.93
2023-05-21T05:49:36.321Z,8.43
2023-05-21T05:52:03.090Z,7.38
2023-05-21T05:54:29.611Z,7.22
2023-05-21T05:56:56.026Z,7.03
2023-05-21T05:59:22.504Z,6.85
2023-05-21T06:01:48.943Z,7.10
2023-05-21T06:04:15.502Z,7.82
2023-05-21T06:06:42.069Z,8.57
2023-05-21T06:09:08.534Z,7.60
2023-05-21T06:11:35.134Z,7.65
2023-05-21T06:14:01.945Z,8.23
2023-05-21T06:16:31.521Z,8.00
2023-05-21T06:18:58.259Z,6.95
2023-05-21T06:21:24.812Z,7.68
2023-05-21T06:23:51.444Z,7.57
2023-05-21T06:26:19.430Z,8.10
2023-05-21T06:28:45.929Z,8.20
2023-05-21T06:31:12.391Z,6.70
2023-05-21T06:33:39.067Z,7.50
2023-05-21T06:36:05.975Z,7.72
2023-05-21T06:38:32.396Z,7.30
2023-05-21T06:40:58.836Z,8.48
2023-05-21T06:43:25.379Z,7.13
2023-05-21T06:45:51.935Z,6.90
2023-05-21T06:48:18.479Z,8.25
2023-05-21T06:50:44.929Z,6.45
2023-05-21T06:53:11.401Z,6.45
2023-05-21T06:55:38.032Z,7.55
2023-05-21T06:58:04.636Z,6.75
2023-05-21T07:00:31.325Z,6.18
2023-05-21T07:02:57.897Z,6.18
2023-05-21T07:05:24.414Z,6.60
2023-05-21T07:07:51.005Z,7.65
2023-05-21T07:10:17.671Z,6.00
2023-05-21T07:12:44.145Z,6.25
2023-05-21T07:15:11.118Z,5.45
2023-05-21T07:17:37.962Z,5.10
2023-05-21T07:20:09.616Z,6.45
2023-05-21T07:22:38.560Z,8.60
2023-05-21T07:25:06.191Z,7.25
2023-05-21T07:27:32.672Z,6.82
2023-05-21T07:29:59.131Z,6.43
2023-05-21T07:32:26.844Z,7.10
2023-05-21T07:34:54.426Z,6.00
2023-05-21T07:37:21.443Z,6.82
2023-05-21T07:39:47.941Z,6.85
2023-05-21T07:42:14.390Z,7.40
2023-05-21T07:44:40.870Z,6.93
2023-05-21T07:47:07.421Z,8.20
2023-05-21T07:49:33.936Z,8.32
2023-05-21T07:52:00.603Z,6.63
2023-05-21T07:54:27.068Z,7.90
2023-05-21T07:56:53.546Z,7.18
2023-05-21T07:59:19.996Z,7.43
2023-05-21T08:01:46.447Z,6.97
2023-05-21T08:04:13.073Z,7.03
2023-05-21T08:06:39.620Z,8.90
2023-05-21T08:09:06.818Z,8.00
2023-05-21T08:11:33.313Z,6.78
2023-05-21T08:13:59.970Z,8.13
2023-05-21T08:16:26.892Z,7.75
2023-05-21T08:18:53.636Z,7.78
2023-05-21T08:21:20.190Z,7.05
2023-05-21T08:23:46.654Z,6.97
2023-05-21T08:26:13.222Z,7.38
2023-05-21T08:28:39.778Z,7.60
2023-05-21T08:31:06.401Z,9.55
2023-05-21T08:33:37.092Z,7.70
2023-05-21T08:36:07.398Z,8.82
2023-05-21T08:38:37.062Z,8.30
2023-05-21T08:41:06.916Z,6.38
2023-05-21T08:43:34.405Z,6.15
2023-05-21T08:46:04.044Z,7.20
2023-05-21T08:48:31.438Z,6.97
2023-05-21T08:51:00.415Z,7.38
2023-05-21T08:53:30.066Z,7.18
2023-05-21T08:55:57.496Z,6.63
2023-05-21T08:58:27.661Z,5.97
2023-05-21T09:00:56.049Z,6.35
2023-05-21T09:03:24.530Z,6.55
2023-05-21T09:05:51.954Z,7.05
2023-05-21T09:08:21.776Z,6.35
2023-05-21T09:10:50.571Z,5.90
2023-05-21T09:13:18.792Z,6.38
2023-05-21T09:15:51.457Z,6.55
2023-05-21T09:18:17.985Z,7.35
2023-05-21T09:20:45.326Z,5.38
2023-05-21T09:23:16.491Z,7.30
2023-05-21T09:25:47.493Z,5.25
2023-05-21T09:28:15.794Z,6.50
2023-05-21T09:30:49.598Z,7.45
2023-05-21T09:33:26.704Z,7.18
2023-05-21T09:35:53.327Z,7.70
2023-05-21T09:38:22.463Z,6.25
2023-05-21T09:40:48.934Z,6.82
2023-05-21T09:43:16.336Z,7.93
2023-05-21T09:46:09.835Z,9.73
2023-05-21T09:48:37.083Z,7.82
2023-05-21T09:51:16.608Z,6.82
2023-05-21T09:53:59.894Z,6.70
2023-05-21T09:56:35.793Z,8.75
2023-05-21T09:59:04.444Z,6.97
2023-05-21T10:01:34.059Z,7.07
2023-05-21T10:04:07.893Z,7.20
2023-05-21T10:06:38.276Z,7.30
2023-05-21T10:09:09.963Z,8.07
2023-05-21T10:11:37.331Z,7.38
2023-05-21T10:14:07.652Z,8.02
2023-05-21T10:16:36.251Z,8.23
2023-05-21T10:19:04.825Z,8.55
2023-05-21T10:21:33.360Z,9.00
2023-05-21T10:24:02.183Z,7.25
2023-05-21T10:26:30.010Z,8.20
2023-05-21T10:29:00.122Z,8.27
2023-05-21T10:31:27.784Z,8.65
2023-05-21T10:33:57.471Z,9.23
2023-05-21T10:36:25.563Z,9.05
2023-05-21T10:38:52.106Z,8.50
2023-05-21T10:41:21.839Z,8.98
2023-05-21T10:44:02.553Z,7.57
2023-05-21T10:46:51.039Z,8.40
2023-05-21T10:49:34.022Z,8.60
2023-05-21T10:52:40.367Z,8.60
2023-05-21T10:55:26.368Z,8.60
2023-05-21T10:58:16.885Z,11.13
2023-05-21T11:00:44.058Z,9.13
2023-05-21T11:03:14.030Z,9.38
2023-05-21T11:05:55.418Z,10.77
2023-05-21T11:08:26.901Z,8.77
2023-05-21T11:11:01.656Z,10.55
2023-05-21T11:13:32.583Z,9.23
2023-05-21T11:15:59.248Z,8.65
2023-05-21T11:18:38.373Z,9.43
2023-05-21T11:21:06.572Z,9.90
2023-05-21T11:23:56.660Z,8.32
2023-05-21T11:26:29.323Z,10.70
2023-05-21T11:29:04.989Z,9.50
2023-05-21T11:31:41.055Z,10.77
2023-05-21T11:34:14.476Z,10.10
2023-05-21T11:36:43.800Z,11.18
2023-05-21T11:39:28.206Z,9.35
2023-05-21T11:42:04.354Z,10.50
2023-05-21T11:44:44.935Z,9.75
2023-05-21T11:47:15.038Z,9.77
2023-05-21T11:49:42.447Z,10.57
2023-05-21T11:52:17.289Z,10.38
2023-05-21T11:54:50.493Z,10.82
2023-05-21T11:57:19.277Z,10.23
2023-05-21T11:59:46.887Z,12.32
2023-05-21T12:02:20.800Z,10.20
2023-05-21T12:04:48.891Z,11.10
2023-05-21T12:07:19.107Z,12.38
2023-05-21T12:09:50.439Z,11.30
2023-05-21T12:12:19.182Z,9.77
2023-05-21T12:14:47.802Z,11.77
2023-05-21T12:17:19.293Z,10.82
2023-05-21T12:19:47.102Z,12.05
2023-05-21T12:22:16.468Z,11.45
2023-05-21T12:24:44.108Z,11.75
2023-05-21T12:27:13.278Z,11.50
2023-05-21T12:29:42.423Z,12.57
2023-05-21T12:32:13.767Z,12.82
2023-05-21T12:34:54.926Z,11.70
2023-05-21T12:37:24.119Z,12.23
2023-05-21T12:39:52.375Z,11.23
2023-05-21T12:42:30.652Z,12.38
2023-05-21T12:44:58.232Z,11.65
2023-05-21T12:47:26.953Z,12.00
2023-05-21T12:49:57.829Z,12.15
2023-05-21T12:52:25.413Z,12.65
2023-05-21T12:54:54.671Z,12.82
2023-05-21T12:57:23.928Z,13.27
2023-05-21T12:59:51.708Z,11.80
2023-05-21T13:02:22.738Z,12.45
2023-05-21T13:04:54.805Z,12.15
2023-05-21T13:07:21.395Z,10.88
2023-05-21T13:09:48.997Z,13.27
2023-05-21T13:12:15.650Z,12.02
2023-05-21T13:14:42.190Z,13.30
2023-05-21T13:17:08.768Z,12.82
2023-05-21T13:19:36.518Z,12.95
2023-05-21T13:22:03.629Z,12.73
2023-05-21T13:24:30.101Z,13.13
2023-05-21T13:26:56.843Z,13.77
2023-05-21T13:29:23.563Z,12.40
2023-05-21T13:31:50.093Z,12.60
2023-05-21T13:34:16.739Z,11.25
2023-05-21T13:36:43.300Z,12.70
2023-05-21T13:39:09.780Z,14.00
2023-05-21T13:41:36.420Z,12.20
2023-05-21T13:44:02.955Z,13.73
2023-05-21T13:46:29.781Z,12.95
2023-05-21T13:48:56.505Z,14.13
2023-05-21T13:51:37.365Z,11.13
2023-05-21T13:54:04.955Z,12.68
2023-05-21T13:56:33.340Z,14.20
2023-05-21T13:59:00.157Z,13.68
2023-05-21T14:01:26.969Z,12.63
2023-05-21T14:03:53.467Z,14.43
2023-05-21T14:06:20.085Z,13.43
2023-05-21T14:08:46.667Z,12.05
2023-05-21T14:11:13.124Z,11.95
2023-05-21T14:13:39.686Z,12.82
2023-05-21T14:16:06.848Z,13.15
2023-05-21T14:18:33.549Z,13.45
2023-05-21T14:21:00.083Z,12.45
2023-05-21T14:23:26.592Z,13.60
2023-05-21T14:25:53.124Z,15.43
2023-05-21T14:28:19.647Z,14.80
2023-05-21T14:30:46.176Z,14.65
2023-05-21T14:33:13.359Z,13.18
2023-05-21T14:35:41.424Z,12.40
2023-05-21T14:38:07.925Z,11.85
2023-05-21T14:40:34.423Z,12.45
2023-05-21T14:43:01.028Z,12.85
2023-05-21T14:45:27.541Z,12.23
2023-05-21T14:47:54.072Z,11.80
2023-05-21T14:50:20.550Z,13.48
2023-05-21T14:52:47.166Z,13.02
2023-05-21T14:55:16.366Z,13.20
2023-05-21T14:57:42.825Z,11.90
2023-05-21T15:00:11.535Z,13.52
2023-05-21T15:02:38.306Z,15.20
2023-05-21T15:05:05.247Z,12.60
2023-05-21T15:07:31.793Z,12.95
2023-05-21T15:09:58.263Z,12.20
2023-05-21T15:12:24.855Z,12.48
2023-05-21T15:14:51.484Z,11.48
2023-05-21T15:17:17.973Z,13.10
2023-05-21T15:19:44.859Z,12.85
2023-05-21T15:22:11.303Z,12.75
2023-05-21T15:24:37.848Z,12.68
2023-05-21T15:27:04.714Z,13.60
2023-05-21T15:29:31.783Z,13.48
2023-05-21T15:31:58.528Z,13.02
2023-05-21T15:34:25.225Z,13.07
2023-05-21T15:36:51.843Z,12.43
2023-05-21T15:39:18.358Z,13.77
2023-05-21T15:41:44.813Z,13.85
2023-05-21T15:44:11.459Z,14.13
2023-05-21T15:46:37.912Z,14.90
2023-05-21T15:49:04.475Z,13.55
2023-05-21T15:51:31.216Z,13.35
2023-05-21T15:53:57.799Z,13.95
2023-05-21T15:56:24.485Z,13.23
2023-05-21T15:58:51.104Z,12.98
2023-05-21T16:01:18.327Z,13.13
2023-05-21T16:03:44.872Z,13.35
2023-05-21T16:06:21.031Z,13.50
2023-05-21T16:08:48.355Z,13.32
2023-05-21T16:11:15.494Z,11.40
2023-05-21T16:13:42.038Z,14.13
2023-05-21T16:16:08.686Z,13.25
2023-05-21T16:18:35.212Z,13.68
2023-05-21T16:21:01.764Z,16.13
2023-05-21T16:23:28.875Z,13.75
2023-05-21T16:25:55.488Z,13.20
2023-05-21T16:28:34.037Z,13.18
2023-05-21T16:31:02.583Z,12.77
2023-05-21T16:33:29.349Z,12.23
2023-05-21T16:35:55.937Z,13.05
2023-05-21T16:38:22.781Z,12.38
2023-05-21T16:40:49.451Z,12.38
2023-05-21T16:43:16.474Z,12.55
2023-05-21T16:45:46.807Z,12.57
2023-05-21T16:48:13.501Z,13.32
2023-05-21T16:50:40.751Z,15.75
2023-05-21T16:53:08.597Z,16.02
2023-05-21T16:55:36.940Z,16.23
2023-05-21T16:58:05.678Z,16.13
2023-05-21T17:00:32.862Z,15.75
2023-05-21T17:02:59.562Z,15.30
2023-05-21T17:05:26.462Z,16.40
2023-05-21T17:07:53.168Z,16.95
2023-05-21T17:10:19.707Z,15.25
2023-05-21T17:12:46.286Z,16.80
2023-05-21T17:15:13.276Z,16.17
2023-05-21T17:17:41.625Z,16.98
2023-05-21T17:20:09.119Z,18.23
2023-05-21T17:22:35.708Z,18.52
2023-05-21T17:25:02.632Z,18.23
2023-05-21T17:27:29.272Z,19.20
2023-05-21T17:29:56.069Z,17.98
2023-05-21T17:32:23.333Z,18.48
2023-05-21T17:34:49.862Z,18.20
2023-05-21T17:37:16.601Z,18.92
2023-05-21T17:39:46.150Z,19.02
2023-05-21T17:42:12.650Z,18.48
2023-05-21T17:44:39.300Z,16.55
2023-05-21T17:47:06.910Z,18.13
2023-05-21T17:49:33.559Z,17.67
2023-05-21T17:52:03.849Z,18.33
2023-05-21T17:54:31.404Z,20.17
2023-05-21T17:56:57.965Z,19.75
2023-05-21T17:59:29.409Z,18.23
2023-05-21T18:02:02.768Z,18.58
2023-05-21T18:04:34.325Z,18.38
2023-05-21T18:07:02.479Z,19.50
2023-05-21T18:09:30.854Z,20.55
2023-05-21T18:11:59.821Z,19.20
2023-05-21T18:14:34.157Z,21.35
2023-05-21T18:17:02.426Z,21.50
2023-05-21T18:19:32.030Z,21.48
2023-05-21T18:21:58.698Z,19.52
2023-05-21T18:24:30.016Z,20.23
2023-05-21T18:26:56.793Z,19.40
2023-05-21T18:29:23.294Z,18.92
2023-05-21T18:31:53.634Z,19.35
2023-05-21T18:34:33.060Z,19.23
2023-05-21T18:37:01.644Z,18.23
2023-05-21T18:39:31.914Z,20.05
2023-05-21T18:42:12.058Z,19.95
2023-05-21T18:44:42.177Z,19.63
2023-05-21T18:47:08.761Z,22.25
2023-05-21T18:49:38.934Z,19.10
2023-05-21T18:52:07.226Z,19.63
2023-05-21T18:54:33.915Z,18.42
2023-05-21T18:57:00.964Z,20.63
2023-05-21T18:59:29.196Z,19.73
2023-05-21T19:01:55.965Z,20.55
2023-05-21T19:04:22.534Z,19.40
2023-05-21T19:06:54.511Z,19.38
2023-05-21T19:09:34.488Z,19.35
2023-05-21T19:12:04.765Z,22.00
2023-05-21T19:14:31.499Z,20.15
2023-05-21T19:16:58.041Z,19.27
2023-05-21T19:19:24.536Z,20.13
2023-05-21T19:21:52.793Z,18.50
2023-05-21T19:24:19.292Z,19.08
2023-05-21T19:26:45.731Z,21.42
2023-05-21T19:29:12.274Z,20.83
2023-05-21T19:31:39.219Z,20.38
2023-05-21T19:34:10.444Z,21.73
2023-05-21T19:36:51.450Z,20.30
2023-05-21T19:39:19.789Z,24.50
2023-05-21T19:41:46.319Z,23.05
2023-05-21T19:44:12.782Z,22.08
2023-05-21T19:46:39.294Z,21.90
2023-05-21T19:49:05.835Z,23.05
2023-05-21T19:51:32.338Z,24.05
2023-05-21T19:53:58.754Z,21.73
2023-05-21T19:56:25.601Z,22.83
2023-05-21T19:58:52.059Z,24.02
2023-05-21T20:01:18.694Z,23.75
2023-05-21T20:03:45.517Z,23.63
2023-05-21T20:06:12.280Z,24.05
2023-05-21T20:08:38.988Z,21.83
2023-05-21T20:11:05.526Z,22.67
2023-05-21T20:13:32.055Z,21.67
2023-05-21T20:15:58.598Z,22.88
2023-05-21T20:18:25.070Z,21.48
2023-05-21T20:20:51.601Z,21.48
2023-05-21T20:23:18.021Z,21.50
2023-05-21T20:25:44.459Z,23.80
2023-05-21T20:28:11.025Z,23.33
2023-05-21T20:30:53.510Z,22.10
2023-05-21T20:33:20.518Z,23.90
2023-05-21T20:35:47.045Z,26.08
2023-05-21T20:38:15.941Z,23.73
2023-05-21T20:40:44.149Z,25.27
2023-05-21T20:43:18.540Z,26.65
2023-05-21T20:45:49.842Z,23.27
2023-05-21T20:48:16.666Z,23.70
2023-05-21T20:50:44.249Z,26.70
2023-05-21T20:53:12.048Z,25.20
2023-05-21T20:55:38.594Z,28.85
2023-05-21T20:58:05.645Z,27.23
2023-05-21T21:00:33.392Z,25.17
2023-05-21T21:03:01.239Z,26.58
2023-05-21T21:05:28.294Z,25.00
2023-05-21T21:07:55.958Z,23.58
2023-05-21T21:10:22.764Z,21.13
2023-05-21T21:12:49.225Z,22.98
2023-05-21T21:15:15.818Z,21.30
2023-05-21T21:17:42.279Z,20.23
2023-05-21T21:20:10.614Z,21.25
2023-05-21T21:22:37.166Z,21.25
2023-05-21T21:25:04.012Z,19.20
2023-05-21T21:27:30.468Z,20.15
2023-05-21T21:29:56.998Z,20.02
2023-05-21T21:32:23.621Z,18.50
2023-05-21T21:34:50.045Z,19.50
2023-05-21T21:37:16.846Z,18.17
2023-05-21T21:39:43.297Z,17.50
2023-05-21T21:42:09.888Z,18.35
2023-05-21T21:44:36.375Z,20.00
2023-05-21T21:47:02.809Z,17.15
2023-05-21T21:49:29.338Z,17.25
2023-05-21T21:51:57.817Z,17.20
2023-05-21T21:54:24.645Z,17.33
2023-05-21T21:56:51.768Z,18.63
2023-05-21T21:59:18.803Z,17.67
2023-05-21T22:01:45.386Z,16.90
2023-05-21T22:04:11.928Z,16.65
2023-05-21T22:06:39.116Z,17.60
2023-05-21T22:09:06.608Z,15.57
2023-05-21T22:11:33.105Z,14.82
2023-05-21T22:14:00.372Z,17.33
2023-05-21T22:16:28.188Z,15.48
2023-05-21T22:18:54.751Z,15.80
2023-05-21T22:21:21.540Z,15.02
2023-05-21T22:23:48.015Z,17.70
2023-05-21T22:26:14.449Z,19.27
2023-05-21T22:28:40.956Z,17.02
2023-05-21T22:31:07.901Z,15.98
2023-05-21T22:33:34.481Z,16.08
2023-05-21T22:36:00.985Z,16.60
2023-05-21T22:38:27.662Z,16.90
2023-05-21T22:40:54.496Z,19.30
2023-05-21T22:43:21.000Z,15.80
2023-05-21T22:45:47.450Z,17.38
2023-05-21T22:48:14.341Z,16.98
2023-05-21T22:50:41.016Z,18.00
2023-05-21T22:53:07.685Z,18.42
2023-05-21T22:55:34.108Z,19.15
2023-05-21T22:58:00.572Z,18.55
2023-05-21T23:00:27.562Z,19.48
2023-05-21T23:02:54.802Z,17.98
2023-05-21T23:05:21.602Z,17.63
2023-05-21T23:07:48.065Z,18.40
2023-05-21T23:10:14.566Z,18.20
2023-05-21T23:12:41.297Z,19.15
2023-05-21T23:15:09.762Z,20.42
2023-05-21T23:17:37.207Z,20.77
2023-05-21T23:20:04.044Z,19.63
2023-05-21T23:22:30.599Z,16.60
2023-05-21T23:24:57.202Z,18.80
2023-05-21T23:27:23.969Z,19.75
2023-05-21T23:29:50.438Z,18.40
2023-05-21T23:32:17.153Z,20.80
2023-05-21T23:34:43.654Z,16.60
2023-05-21T23:37:10.160Z,18.90
2023-05-21T23:39:36.734Z,20.30
2023-05-21T23:42:03.509Z,21.42
2023-05-21T23:44:29.979Z,18.75
2023-05-21T23:46:56.432Z,18.25
2023-05-21T23:49:22.851Z,18.90
2023-05-21T23:51:52.274Z,18.65
2023-05-21T23:54:18.778Z,17.88
2023-05-21T23:56:45.720Z,18.27
2023-05-21T23:59:12.157Z,18.77
